Huntsville, Texas
Current Conditions -  °F | °C
As of 12:53 PM on Thursday 30 Oct 2014 (Local Time) from KUTS Reporting Station
Clear Clear  
Wind Chill: 74°   Ceiling: Unl
Heat Index: 74°   Visibility: 10mi
Dew Point: 46°   Wind: 0mph
Humidity: 37%   Direction: NA
Pressure: 30.14"   Gusts: NA
Location:  30.72°N, 95.55°W
Report Text: KUTS 301753Z AUTO 00000KT 10SM CLR 23/08 A3014 RMK AO2 SLP202 T02330078 10233 20094 58011
Loading
Personal Weather Stations






























Interactive Weather Map New forecast layout! Learn more

10-Day Weather Forecast

Advertisements
Track Severe Weather on mobile